aviador You're here:

UBBL Decoded Metar

in
Report Time2017-09-25 16:30:00
UTC Time2017-09-25 17:00:38
Flight Rules vfr VFR
WindVRB at 03 kt
Visibility9999 m
Phenomena:Vicinity thunderstorm
Clouds:Scattered CB 035 Hf
Broken 070 Hf
Expected CloudBase > 2,000 ft AGL from Temp-Dew spread
Ceiling7,000 ft
Temp23°C
Dew Point18°C (74% RH)
QNH1022 hPa
Raw Report
METAR UBBL 251630Z VRB03KT 9999 VCTS SCT035CB BKN070 23/18 Q1022
R33/CLRD// NOSIG RMK MT OP=

Extra information for UBBL:More info

Social comments